sensor_id;sensor_type;location;lat;lon;timestamp;P1;durP1;ratioP1;P2;durP2;ratioP2
2055;SDS011;1033;52.560;13.374;2023-08-30T00:01:42;5.47;;;4.80;;
2055;SDS011;1033;52.560;13.374;2023-08-30T00:04:11;5.07;;;4.47;;
2055;SDS011;1033;52.560;13.374;2023-08-30T00:06:40;10.07;;;5.70;;
2055;SDS011;1033;52.560;13.374;2023-08-30T00:09:09;7.63;;;5.93;;
2055;SDS011;1033;52.560;13.374;2023-08-30T00:11:39;6.20;;;5.67;;
2055;SDS011;1033;52.560;13.374;2023-08-30T00:14:09;5.93;;;4.53;;
2055;SDS011;1033;52.560;13.374;2023-08-30T00:16:38;7.47;;;5.83;;
2055;SDS011;1033;52.560;13.374;2023-08-30T00:19:08;6.40;;;5.10;;
2055;SDS011;1033;52.560;13.374;2023-08-30T00:21:38;9.00;;;4.47;;
2055;SDS011;1033;52.560;13.374;2023-08-30T00:24:07;6.33;;;5.33;;
2055;SDS011;1033;52.560;13.374;2023-08-30T00:26:36;5.50;;;5.00;;
2055;SDS011;1033;52.560;13.374;2023-08-30T00:29:05;6.83;;;5.70;;
2055;SDS011;1033;52.560;13.374;2023-08-30T00:31:34;6.97;;;5.23;;
2055;SDS011;1033;52.560;13.374;2023-08-30T00:34:05;7.77;;;6.30;;
2055;SDS011;1033;52.560;13.374;2023-08-30T00:36:35;5.40;;;4.90;;
2055;SDS011;1033;52.560;13.374;2023-08-30T00:39:05;12.40;;;5.27;;
2055;SDS011;1033;52.560;13.374;2023-08-30T00:41:35;9.10;;;6.57;;
2055;SDS011;1033;52.560;13.374;2023-08-30T00:44:05;6.20;;;5.40;;
2055;SDS011;1033;52.560;13.374;2023-08-30T00:46:39;7.87;;;5.90;;
2055;SDS011;1033;52.560;13.374;2023-08-30T00:49:08;5.93;;;5.37;;
2055;SDS011;1033;52.560;13.374;2023-08-30T00:51:39;5.50;;;4.93;;
2055;SDS011;1033;52.560;13.374;2023-08-30T00:54:08;6.40;;;5.20;;
2055;SDS011;1033;52.560;13.374;2023-08-30T00:56:38;9.40;;;5.50;;
2055;SDS011;1033;52.560;13.374;2023-08-30T00:59:07;9.43;;;5.93;;
2055;SDS011;1033;52.560;13.374;2023-08-30T01:01:37;6.43;;;5.83;;
2055;SDS011;1033;52.560;13.374;2023-08-30T01:04:08;6.30;;;5.47;;
2055;SDS011;1033;52.560;13.374;2023-08-30T01:06:37;6.40;;;5.80;;
2055;SDS011;1033;52.560;13.374;2023-08-30T01:09:08;7.37;;;5.23;;
2055;SDS011;1033;52.560;13.374;2023-08-30T01:11:39;7.33;;;6.10;;
2055;SDS011;1033;52.560;13.374;2023-08-30T01:14:17;6.00;;;5.30;;
2055;SDS011;1033;52.560;13.374;2023-08-30T01:16:51;5.70;;;5.20;;
2055;SDS011;1033;52.560;13.374;2023-08-30T01:19:26;5.70;;;5.10;;
2055;SDS011;1033;52.560;13.374;2023-08-30T01:22:11;8.80;;;6.33;;
2055;SDS011;1033;52.560;13.374;2023-08-30T01:24:48;6.97;;;5.60;;
2055;SDS011;1033;52.560;13.374;2023-08-30T01:27:27;6.03;;;5.53;;
2055;SDS011;1033;52.560;13.374;2023-08-30T01:29:58;6.30;;;5.70;;
2055;SDS011;1033;52.560;13.374;2023-08-30T01:32:31;7.20;;;6.23;;
2055;SDS011;1033;52.560;13.374;2023-08-30T01:35:01;6.60;;;5.17;;
2055;SDS011;1033;52.560;13.374;2023-08-30T01:37:32;5.77;;;4.87;;
2055;SDS011;1033;52.560;13.374;2023-08-30T01:40:02;5.80;;;4.90;;
2055;SDS011;1033;52.560;13.374;2023-08-30T01:42:35;6.50;;;4.77;;
2055;SDS011;1033;52.560;13.374;2023-08-30T01:45:06;5.33;;;4.60;;
2055;SDS011;1033;52.560;13.374;2023-08-30T01:47:37;6.03;;;4.93;;
2055;SDS011;1033;52.560;13.374;2023-08-30T01:50:07;5.80;;;5.30;;
2055;SDS011;1033;52.560;13.374;2023-08-30T01:52:38;5.70;;;5.20;;
2055;SDS011;1033;52.560;13.374;2023-08-30T01:55:08;7.10;;;4.53;;
2055;SDS011;1033;52.560;13.374;2023-08-30T01:57:39;5.30;;;4.90;;
2055;SDS011;1033;52.560;13.374;2023-08-30T02:00:10;5.03;;;4.60;;
2055;SDS011;1033;52.560;13.374;2023-08-30T02:02:43;9.60;;;5.57;;
2055;SDS011;1033;52.560;13.374;2023-08-30T02:05:12;4.80;;;4.40;;
2055;SDS011;1033;52.560;13.374;2023-08-30T02:07:43;6.17;;;5.30;;
2055;SDS011;1033;52.560;13.374;2023-08-30T02:10:23;6.50;;;4.77;;
2055;SDS011;1033;52.560;13.374;2023-08-30T02:12:57;6.10;;;5.00;;
2055;SDS011;1033;52.560;13.374;2023-08-30T02:15:30;9.20;;;6.00;;
2055;SDS011;1033;52.560;13.374;2023-08-30T02:18:03;5.57;;;5.07;;
2055;SDS011;1033;52.560;13.374;2023-08-30T02:20:34;5.63;;;4.93;;
2055;SDS011;1033;52.560;13.374;2023-08-30T02:23:03;5.93;;;5.33;;
2055;SDS011;1033;52.560;13.374;2023-08-30T02:25:40;12.00;;;5.10;;
2055;SDS011;1033;52.560;13.374;2023-08-30T02:28:11;8.30;;;7.20;;
2055;SDS011;1033;52.560;13.374;2023-08-30T02:30:40;5.77;;;5.20;;
2055;SDS011;1033;52.560;13.374;2023-08-30T02:33:09;5.63;;;5.13;;
2055;SDS011;1033;52.560;13.374;2023-08-30T02:35:39;6.17;;;5.57;;
2055;SDS011;1033;52.560;13.374;2023-08-30T02:38:08;7.23;;;6.50;;
2055;SDS011;1033;52.560;13.374;2023-08-30T02:40:37;5.60;;;5.20;;
2055;SDS011;1033;52.560;13.374;2023-08-30T02:43:07;6.50;;;5.70;;
2055;SDS011;1033;52.560;13.374;2023-08-30T02:45:38;7.07;;;6.37;;
2055;SDS011;1033;52.560;13.374;2023-08-30T02:48:07;5.87;;;5.27;;
2055;SDS011;1033;52.560;13.374;2023-08-30T02:50:37;7.50;;;5.90;;
2055;SDS011;1033;52.560;13.374;2023-08-30T02:53:06;5.53;;;5.03;;
2055;SDS011;1033;52.560;13.374;2023-08-30T02:55:36;6.40;;;5.80;;
2055;SDS011;1033;52.560;13.374;2023-08-30T02:58:05;7.80;;;6.80;;
2055;SDS011;1033;52.560;13.374;2023-08-30T03:00:35;7.00;;;5.80;;
2055;SDS011;1033;52.560;13.374;2023-08-30T03:03:07;6.87;;;6.07;;
2055;SDS011;1033;52.560;13.374;2023-08-30T03:05:37;7.30;;;6.60;;
2055;SDS011;1033;52.560;13.374;2023-08-30T03:08:07;6.17;;;5.67;;
2055;SDS011;1033;52.560;13.374;2023-08-30T03:10:37;6.40;;;5.80;;
2055;SDS011;1033;52.560;13.374;2023-08-30T03:13:07;7.03;;;5.27;;
2055;SDS011;1033;52.560;13.374;2023-08-30T03:15:36;7.97;;;6.03;;
2055;SDS011;1033;52.560;13.374;2023-08-30T03:18:08;13.97;;;7.67;;
2055;SDS011;1033;52.560;13.374;2023-08-30T03:20:38;6.57;;;5.97;;
2055;SDS011;1033;52.560;13.374;2023-08-30T03:23:07;6.97;;;6.27;;
2055;SDS011;1033;52.560;13.374;2023-08-30T03:25:36;7.10;;;6.03;;
2055;SDS011;1033;52.560;13.374;2023-08-30T03:28:06;6.83;;;6.33;;
2055;SDS011;1033;52.560;13.374;2023-08-30T03:30:35;6.60;;;6.00;;
2055;SDS011;1033;52.560;13.374;2023-08-30T03:33:04;7.07;;;6.47;;
2055;SDS011;1033;52.560;13.374;2023-08-30T03:35:35;6.93;;;6.40;;
2055;SDS011;1033;52.560;13.374;2023-08-30T03:38:04;7.77;;;7.07;;
2055;SDS011;1033;52.560;13.374;2023-08-30T03:40:34;6.47;;;5.87;;
2055;SDS011;1033;52.560;13.374;2023-08-30T03:43:06;7.93;;;7.13;;
2055;SDS011;1033;52.560;13.374;2023-08-30T03:45:37;8.33;;;7.60;;
2055;SDS011;1033;52.560;13.374;2023-08-30T03:48:06;8.17;;;7.47;;
2055;SDS011;1033;52.560;13.374;2023-08-30T03:50:37;8.90;;;8.00;;
2055;SDS011;1033;52.560;13.374;2023-08-30T03:53:06;12.70;;;7.83;;
2055;SDS011;1033;52.560;13.374;2023-08-30T03:55:35;11.43;;;8.70;;
2055;SDS011;1033;52.560;13.374;2023-08-30T03:58:04;8.57;;;7.67;;
2055;SDS011;1033;52.560;13.374;2023-08-30T04:00:35;9.90;;;9.03;;
2055;SDS011;1033;52.560;13.374;2023-08-30T04:03:08;8.30;;;7.60;;
2055;SDS011;1033;52.560;13.374;2023-08-30T04:05:39;9.30;;;8.23;;
2055;SDS011;1033;52.560;13.374;2023-08-30T04:08:09;10.00;;;9.07;;
2055;SDS011;1033;52.560;13.374;2023-08-30T04:10:39;8.53;;;7.73;;
2055;SDS011;1033;52.560;13.374;2023-08-30T04:13:10;11.27;;;10.17;;
2055;SDS011;1033;52.560;13.374;2023-08-30T04:15:39;10.43;;;9.33;;
2055;SDS011;1033;52.560;13.374;2023-08-30T04:18:09;11.70;;;10.50;;
2055;SDS011;1033;52.560;13.374;2023-08-30T04:20:44;10.73;;;9.83;;
2055;SDS011;1033;52.560;13.374;2023-08-30T04:23:13;11.07;;;9.97;;
2055;SDS011;1033;52.560;13.374;2023-08-30T04:25:43;11.47;;;8.90;;
2055;SDS011;1033;52.560;13.374;2023-08-30T04:28:13;9.37;;;8.50;;
2055;SDS011;1033;52.560;13.374;2023-08-30T04:30:43;10.40;;;9.50;;
2055;SDS011;1033;52.560;13.374;2023-08-30T04:33:13;9.90;;;9.10;;
2055;SDS011;1033;52.560;13.374;2023-08-30T04:35:43;11.50;;;9.40;;
2055;SDS011;1033;52.560;13.374;2023-08-30T04:38:17;10.27;;;9.00;;
2055;SDS011;1033;52.560;13.374;2023-08-30T04:40:47;9.80;;;8.87;;
2055;SDS011;1033;52.560;13.374;2023-08-30T04:43:17;13.83;;;12.53;;
2055;SDS011;1033;52.560;13.374;2023-08-30T04:45:47;15.00;;;13.50;;
2055;SDS011;1033;52.560;13.374;2023-08-30T04:48:16;14.27;;;9.93;;
2055;SDS011;1033;52.560;13.374;2023-08-30T04:50:48;8.67;;;7.97;;
2055;SDS011;1033;52.560;13.374;2023-08-30T04:53:17;9.93;;;9.10;;
2055;SDS011;1033;52.560;13.374;2023-08-30T04:55:46;11.73;;;9.10;;
2055;SDS011;1033;52.560;13.374;2023-08-30T04:58:16;8.60;;;7.80;;
2055;SDS011;1033;52.560;13.374;2023-08-30T05:00:45;9.77;;;7.33;;
2055;SDS011;1033;52.560;13.374;2023-08-30T05:03:14;9.70;;;8.30;;
2055;SDS011;1033;52.560;13.374;2023-08-30T05:05:48;9.13;;;8.27;;
2055;SDS011;1033;52.560;13.374;2023-08-30T05:08:17;9.53;;;8.60;;
2055;SDS011;1033;52.560;13.374;2023-08-30T05:10:47;9.57;;;8.23;;
2055;SDS011;1033;52.560;13.374;2023-08-30T05:13:17;8.60;;;7.70;;
2055;SDS011;1033;52.560;13.374;2023-08-30T05:15:46;9.73;;;8.70;;
2055;SDS011;1033;52.560;13.374;2023-08-30T05:18:18;10.10;;;8.60;;
2055;SDS011;1033;52.560;13.374;2023-08-30T05:20:48;9.50;;;8.43;;
2055;SDS011;1033;52.560;13.374;2023-08-30T05:23:17;8.97;;;7.70;;
2055;SDS011;1033;52.560;13.374;2023-08-30T05:25:47;9.63;;;8.30;;
2055;SDS011;1033;52.560;13.374;2023-08-30T05:28:17;8.57;;;7.87;;
2055;SDS011;1033;52.560;13.374;2023-08-30T05:30:46;7.17;;;6.57;;
2055;SDS011;1033;52.560;13.374;2023-08-30T05:33:36;6.60;;;6.00;;
2055;SDS011;1033;52.560;13.374;2023-08-30T05:36:25;6.53;;;6.03;;
2055;SDS011;1033;52.560;13.374;2023-08-30T05:39:11;7.30;;;6.30;;
2055;SDS011;1033;52.560;13.374;2023-08-30T05:41:45;6.73;;;6.23;;
2055;SDS011;1033;52.560;13.374;2023-08-30T05:44:14;6.57;;;6.07;;
2055;SDS011;1033;52.560;13.374;2023-08-30T05:46:43;7.13;;;6.43;;
2055;SDS011;1033;52.560;13.374;2023-08-30T05:49:13;6.33;;;5.83;;
2055;SDS011;1033;52.560;13.374;2023-08-30T05:51:45;7.60;;;6.07;;
2055;SDS011;1033;52.560;13.374;2023-08-30T05:54:18;6.73;;;6.13;;
2055;SDS011;1033;52.560;13.374;2023-08-30T05:56:47;7.53;;;6.73;;
2055;SDS011;1033;52.560;13.374;2023-08-30T05:59:16;7.00;;;6.40;;
2055;SDS011;1033;52.560;13.374;2023-08-30T06:01:45;7.43;;;6.83;;
2055;SDS011;1033;52.560;13.374;2023-08-30T06:04:15;8.13;;;7.27;;
2055;SDS011;1033;52.560;13.374;2023-08-30T06:06:45;7.53;;;6.83;;
2055;SDS011;1033;52.560;13.374;2023-08-30T06:09:15;7.07;;;6.47;;
2055;SDS011;1033;52.560;13.374;2023-08-30T06:11:45;9.33;;;6.90;;
2055;SDS011;1033;52.560;13.374;2023-08-30T06:14:15;6.70;;;6.10;;
2055;SDS011;1033;52.560;13.374;2023-08-30T06:16:44;6.43;;;5.93;;
2055;SDS011;1033;52.560;13.374;2023-08-30T06:19:13;6.63;;;6.03;;
2055;SDS011;1033;52.560;13.374;2023-08-30T06:21:43;6.07;;;5.57;;
2055;SDS011;1033;52.560;13.374;2023-08-30T06:24:14;6.13;;;5.63;;
2055;SDS011;1033;52.560;13.374;2023-08-30T06:26:43;6.77;;;6.00;;
2055;SDS011;1033;52.560;13.374;2023-08-30T06:29:12;6.73;;;5.60;;
2055;SDS011;1033;52.560;13.374;2023-08-30T06:31:42;5.60;;;5.10;;
2055;SDS011;1033;52.560;13.374;2023-08-30T06:34:12;5.90;;;5.40;;
2055;SDS011;1033;52.560;13.374;2023-08-30T06:36:47;6.83;;;6.10;;
2055;SDS011;1033;52.560;13.374;2023-08-30T06:39:17;5.30;;;4.80;;
2055;SDS011;1033;52.560;13.374;2023-08-30T06:41:46;5.87;;;5.30;;
2055;SDS011;1033;52.560;13.374;2023-08-30T06:44:15;6.97;;;4.73;;
2055;SDS011;1033;52.560;13.374;2023-08-30T06:46:45;5.97;;;4.97;;
2055;SDS011;1033;52.560;13.374;2023-08-30T06:49:14;6.50;;;5.90;;
2055;SDS011;1033;52.560;13.374;2023-08-30T06:51:43;5.57;;;4.93;;
2055;SDS011;1033;52.560;13.374;2023-08-30T06:54:14;8.07;;;5.30;;
2055;SDS011;1033;52.560;13.374;2023-08-30T06:56:45;6.30;;;5.70;;
2055;SDS011;1033;52.560;13.374;2023-08-30T06:59:24;5.53;;;5.03;;
2055;SDS011;1033;52.560;13.374;2023-08-30T07:01:54;6.20;;;5.67;;
2055;SDS011;1033;52.560;13.374;2023-08-30T07:04:23;6.17;;;5.50;;
2055;SDS011;1033;52.560;13.374;2023-08-30T07:06:52;6.10;;;4.53;;
2055;SDS011;1033;52.560;13.374;2023-08-30T07:09:23;5.83;;;4.83;;
2055;SDS011;1033;52.560;13.374;2023-08-30T07:11:55;5.67;;;5.17;;
2055;SDS011;1033;52.560;13.374;2023-08-30T07:14:24;6.07;;;5.57;;
2055;SDS011;1033;52.560;13.374;2023-08-30T07:16:54;5.43;;;4.73;;
2055;SDS011;1033;52.560;13.374;2023-08-30T07:19:23;5.80;;;4.73;;
2055;SDS011;1033;52.560;13.374;2023-08-30T07:21:52;4.77;;;4.37;;
2055;SDS011;1033;52.560;13.374;2023-08-30T07:24:23;5.10;;;4.57;;
2055;SDS011;1033;52.560;13.374;2023-08-30T07:26:52;5.80;;;4.90;;
2055;SDS011;1033;52.560;13.374;2023-08-30T07:29:21;6.50;;;5.10;;
2055;SDS011;1033;52.560;13.374;2023-08-30T07:31:50;5.30;;;4.80;;
2055;SDS011;1033;52.560;13.374;2023-08-30T07:34:20;5.57;;;5.00;;
2055;SDS011;1033;52.560;13.374;2023-08-30T07:36:49;5.33;;;4.13;;
2055;SDS011;1033;52.560;13.374;2023-08-30T07:39:23;4.70;;;4.30;;
2055;SDS011;1033;52.560;13.374;2023-08-30T07:41:52;5.47;;;3.60;;
2055;SDS011;1033;52.560;13.374;2023-08-30T07:44:21;8.30;;;4.83;;
2055;SDS011;1033;52.560;13.374;2023-08-30T07:46:50;4.23;;;3.93;;
2055;SDS011;1033;52.560;13.374;2023-08-30T07:49:19;29.90;;;7.60;;
2055;SDS011;1033;52.560;13.374;2023-08-30T07:51:49;13.00;;;4.00;;
2055;SDS011;1033;52.560;13.374;2023-08-30T07:54:18;4.63;;;4.23;;
2055;SDS011;1033;52.560;13.374;2023-08-30T07:56:48;4.30;;;3.90;;
2055;SDS011;1033;52.560;13.374;2023-08-30T07:59:18;4.57;;;4.17;;
2055;SDS011;1033;52.560;13.374;2023-08-30T08:01:47;5.63;;;4.73;;
2055;SDS011;1033;52.560;13.374;2023-08-30T08:04:18;5.73;;;4.83;;
2055;SDS011;1033;52.560;13.374;2023-08-30T08:06:47;6.40;;;3.90;;
2055;SDS011;1033;52.560;13.374;2023-08-30T08:09:22;8.03;;;4.50;;
2055;SDS011;1033;52.560;13.374;2023-08-30T08:11:52;28.03;;;17.43;;
2055;SDS011;1033;52.560;13.374;2023-08-30T08:14:23;22.53;;;16.53;;
2055;SDS011;1033;52.560;13.374;2023-08-30T08:16:52;3.83;;;3.40;;
2055;SDS011;1033;52.560;13.374;2023-08-30T08:19:21;6.23;;;4.73;;
2055;SDS011;1033;52.560;13.374;2023-08-30T08:21:54;7.00;;;5.70;;
2055;SDS011;1033;52.560;13.374;2023-08-30T08:24:23;4.47;;;4.00;;
2055;SDS011;1033;52.560;13.374;2023-08-30T08:26:53;4.90;;;4.50;;
2055;SDS011;1033;52.560;13.374;2023-08-30T08:29:23;4.97;;;4.57;;
2055;SDS011;1033;52.560;13.374;2023-08-30T08:31:54;6.33;;;5.30;;
2055;SDS011;1033;52.560;13.374;2023-08-30T08:34:23;9.37;;;7.30;;
2055;SDS011;1033;52.560;13.374;2023-08-30T08:36:52;5.70;;;4.37;;
2055;SDS011;1033;52.560;13.374;2023-08-30T08:39:21;5.80;;;4.60;;
2055;SDS011;1033;52.560;13.374;2023-08-30T08:41:51;9.80;;;6.27;;
2055;SDS011;1033;52.560;13.374;2023-08-30T08:44:22;4.50;;;4.10;;
2055;SDS011;1033;52.560;13.374;2023-08-30T08:46:54;5.60;;;5.10;;
2055;SDS011;1033;52.560;13.374;2023-08-30T08:49:23;6.10;;;4.20;;
2055;SDS011;1033;52.560;13.374;2023-08-30T08:51:55;4.17;;;3.20;;
2055;SDS011;1033;52.560;13.374;2023-08-30T08:54:24;3.87;;;3.50;;
2055;SDS011;1033;52.560;13.374;2023-08-30T08:56:56;6.90;;;4.53;;
2055;SDS011;1033;52.560;13.374;2023-08-30T08:59:26;3.50;;;2.80;;
2055;SDS011;1033;52.560;13.374;2023-08-30T09:01:55;2.80;;;2.50;;
2055;SDS011;1033;52.560;13.374;2023-08-30T09:04:25;4.20;;;3.80;;
2055;SDS011;1033;52.560;13.374;2023-08-30T09:06:57;3.20;;;1.60;;
2055;SDS011;1033;52.560;13.374;2023-08-30T09:09:27;4.00;;;2.63;;
2055;SDS011;1033;52.560;13.374;2023-08-30T09:11:59;2.70;;;2.20;;
2055;SDS011;1033;52.560;13.374;2023-08-30T09:14:28;6.70;;;2.70;;
2055;SDS011;1033;52.560;13.374;2023-08-30T09:16:57;4.57;;;2.80;;
2055;SDS011;1033;52.560;13.374;2023-08-30T09:19:28;3.63;;;2.80;;
2055;SDS011;1033;52.560;13.374;2023-08-30T09:21:58;3.73;;;2.50;;
2055;SDS011;1033;52.560;13.374;2023-08-30T09:24:37;3.43;;;3.10;;
2055;SDS011;1033;52.560;13.374;2023-08-30T09:27:08;3.20;;;2.93;;
2055;SDS011;1033;52.560;13.374;2023-08-30T09:29:37;3.23;;;2.93;;
2055;SDS011;1033;52.560;13.374;2023-08-30T09:32:12;5.07;;;2.93;;
2055;SDS011;1033;52.560;13.374;2023-08-30T09:34:48;2.83;;;2.50;;
2055;SDS011;1033;52.560;13.374;2023-08-30T09:37:21;3.30;;;2.43;;
2055;SDS011;1033;52.560;13.374;2023-08-30T09:39:50;9.30;;;3.37;;
2055;SDS011;1033;52.560;13.374;2023-08-30T09:42:21;4.93;;;2.70;;
2055;SDS011;1033;52.560;13.374;2023-08-30T09:44:51;3.70;;;3.00;;
2055;SDS011;1033;52.560;13.374;2023-08-30T09:47:26;3.57;;;3.10;;
2055;SDS011;1033;52.560;13.374;2023-08-30T09:49:55;4.10;;;2.97;;
2055;SDS011;1033;52.560;13.374;2023-08-30T09:52:28;5.80;;;3.50;;
2055;SDS011;1033;52.560;13.374;2023-08-30T09:55:00;5.27;;;3.13;;
2055;SDS011;1033;52.560;13.374;2023-08-30T09:57:32;5.80;;;3.57;;
2055;SDS011;1033;52.560;13.374;2023-08-30T10:00:02;4.40;;;3.77;;
2055;SDS011;1033;52.560;13.374;2023-08-30T10:02:32;3.17;;;2.90;;
2055;SDS011;1033;52.560;13.374;2023-08-30T10:05:01;4.47;;;2.73;;
2055;SDS011;1033;52.560;13.374;2023-08-30T10:07:32;2.80;;;2.50;;
2055;SDS011;1033;52.560;13.374;2023-08-30T10:10:02;2.87;;;2.63;;
2055;SDS011;1033;52.560;13.374;2023-08-30T10:12:37;4.53;;;2.60;;
2055;SDS011;1033;52.560;13.374;2023-08-30T10:15:19;5.00;;;2.60;;
2055;SDS011;1033;52.560;13.374;2023-08-30T10:17:49;2.20;;;1.90;;
2055;SDS011;1033;52.560;13.374;2023-08-30T10:20:22;3.17;;;2.63;;
2055;SDS011;1033;52.560;13.374;2023-08-30T10:22:51;2.40;;;2.03;;
2055;SDS011;1033;52.560;13.374;2023-08-30T10:25:25;4.63;;;2.77;;
2055;SDS011;1033;52.560;13.374;2023-08-30T10:27:59;4.77;;;2.33;;
2055;SDS011;1033;52.560;13.374;2023-08-30T10:30:29;3.30;;;2.40;;
2055;SDS011;1033;52.560;13.374;2023-08-30T10:32:59;2.50;;;2.13;;
2055;SDS011;1033;52.560;13.374;2023-08-30T10:35:30;7.70;;;3.00;;
2055;SDS011;1033;52.560;13.374;2023-08-30T10:37:59;3.17;;;2.13;;
2055;SDS011;1033;52.560;13.374;2023-08-30T10:40:28;4.30;;;3.00;;
2055;SDS011;1033;52.560;13.374;2023-08-30T10:42:59;3.20;;;2.63;;
2055;SDS011;1033;52.560;13.374;2023-08-30T10:45:30;3.50;;;2.70;;
2055;SDS011;1033;52.560;13.374;2023-08-30T10:47:59;5.67;;;3.60;;
2055;SDS011;1033;52.560;13.374;2023-08-30T10:50:31;5.43;;;3.37;;
2055;SDS011;1033;52.560;13.374;2023-08-30T10:53:01;8.97;;;2.30;;
2055;SDS011;1033;52.560;13.374;2023-08-30T10:55:32;2.70;;;2.00;;
2055;SDS011;1033;52.560;13.374;2023-08-30T10:58:03;3.20;;;2.07;;
2055;SDS011;1033;52.560;13.374;2023-08-30T11:00:32;2.63;;;2.00;;
2055;SDS011;1033;52.560;13.374;2023-08-30T11:03:02;4.73;;;3.00;;
2055;SDS011;1033;52.560;13.374;2023-08-30T11:05:40;3.87;;;2.77;;
2055;SDS011;1033;52.560;13.374;2023-08-30T11:08:10;2.87;;;2.23;;
2055;SDS011;1033;52.560;13.374;2023-08-30T11:10:40;2.93;;;2.10;;
2055;SDS011;1033;52.560;13.374;2023-08-30T11:13:11;4.17;;;2.20;;
2055;SDS011;1033;52.560;13.374;2023-08-30T11:15:44;7.77;;;2.70;;
2055;SDS011;1033;52.560;13.374;2023-08-30T11:18:13;2.60;;;2.33;;
2055;SDS011;1033;52.560;13.374;2023-08-30T11:20:47;4.40;;;2.73;;
2055;SDS011;1033;52.560;13.374;2023-08-30T11:23:21;2.67;;;2.40;;
2055;SDS011;1033;52.560;13.374;2023-08-30T11:25:50;3.20;;;2.73;;
2055;SDS011;1033;52.560;13.374;2023-08-30T11:28:25;4.47;;;2.83;;
2055;SDS011;1033;52.560;13.374;2023-08-30T11:30:54;3.57;;;2.50;;
2055;SDS011;1033;52.560;13.374;2023-08-30T11:36:20;3.27;;;2.30;;
2055;SDS011;1033;52.560;13.374;2023-08-30T11:38:50;2.30;;;1.90;;
2055;SDS011;1033;52.560;13.374;2023-08-30T11:41:20;3.90;;;2.20;;
2055;SDS011;1033;52.560;13.374;2023-08-30T11:43:51;6.40;;;2.10;;
2055;SDS011;1033;52.560;13.374;2023-08-30T11:46:21;3.60;;;2.17;;
2055;SDS011;1033;52.560;13.374;2023-08-30T11:48:51;3.00;;;2.30;;
2055;SDS011;1033;52.560;13.374;2023-08-30T11:51:21;2.50;;;2.30;;
2055;SDS011;1033;52.560;13.374;2023-08-30T11:53:50;4.10;;;2.23;;
2055;SDS011;1033;52.560;13.374;2023-08-30T11:56:20;5.60;;;2.30;;
2055;SDS011;1033;52.560;13.374;2023-08-30T11:58:52;2.80;;;2.17;;
2055;SDS011;1033;52.560;13.374;2023-08-30T12:01:21;3.77;;;2.23;;
2055;SDS011;1033;52.560;13.374;2023-08-30T12:29:11;3.13;;;2.60;;
2055;SDS011;1033;52.560;13.374;2023-08-30T12:31:42;3.30;;;2.90;;
2055;SDS011;1033;52.560;13.374;2023-08-30T12:34:11;2.80;;;1.90;;
2055;SDS011;1033;52.560;13.374;2023-08-30T12:36:41;3.17;;;2.87;;
2055;SDS011;1033;52.560;13.374;2023-08-30T12:39:10;3.77;;;2.40;;
2055;SDS011;1033;52.560;13.374;2023-08-30T12:41:40;3.60;;;2.73;;
2055;SDS011;1033;52.560;13.374;2023-08-30T12:44:09;3.93;;;3.10;;
2055;SDS011;1033;52.560;13.374;2023-08-30T12:46:39;3.00;;;2.70;;
2055;SDS011;1033;52.560;13.374;2023-08-30T12:49:09;5.30;;;2.67;;
2055;SDS011;1033;52.560;13.374;2023-08-30T12:51:39;3.00;;;2.70;;
2055;SDS011;1033;52.560;13.374;2023-08-30T12:54:08;3.80;;;3.50;;
2055;SDS011;1033;52.560;13.374;2023-08-30T12:56:37;3.13;;;2.70;;
2055;SDS011;1033;52.560;13.374;2023-08-30T12:59:07;4.53;;;4.13;;
2055;SDS011;1033;52.560;13.374;2023-08-30T13:01:37;5.57;;;3.40;;
2055;SDS011;1033;52.560;13.374;2023-08-30T13:04:07;5.53;;;4.33;;
2055;SDS011;1033;52.560;13.374;2023-08-30T13:06:37;5.20;;;3.50;;
2055;SDS011;1033;52.560;13.374;2023-08-30T13:09:07;3.27;;;2.97;;
2055;SDS011;1033;52.560;13.374;2023-08-30T13:11:36;9.07;;;5.10;;
2055;SDS011;1033;52.560;13.374;2023-08-30T13:14:05;2.83;;;2.57;;
2055;SDS011;1033;52.560;13.374;2023-08-30T13:16:35;3.40;;;3.10;;
2055;SDS011;1033;52.560;13.374;2023-08-30T13:19:05;4.53;;;3.27;;
2055;SDS011;1033;52.560;13.374;2023-08-30T13:21:35;4.20;;;3.13;;
2055;SDS011;1033;52.560;13.374;2023-08-30T13:24:07;5.37;;;4.00;;
2055;SDS011;1033;52.560;13.374;2023-08-30T13:26:36;4.63;;;3.90;;
2055;SDS011;1033;52.560;13.374;2023-08-30T13:32:06;5.37;;;4.87;;
2055;SDS011;1033;52.560;13.374;2023-08-30T13:34:36;4.43;;;3.57;;
2055;SDS011;1033;52.560;13.374;2023-08-30T13:37:06;3.30;;;2.80;;
2055;SDS011;1033;52.560;13.374;2023-08-30T13:39:36;3.60;;;3.30;;
2055;SDS011;1033;52.560;13.374;2023-08-30T13:42:05;4.20;;;3.33;;
2055;SDS011;1033;52.560;13.374;2023-08-30T13:44:35;4.07;;;3.17;;
2055;SDS011;1033;52.560;13.374;2023-08-30T13:47:04;3.97;;;3.57;;
2055;SDS011;1033;52.560;13.374;2023-08-30T13:49:34;4.30;;;3.10;;
2055;SDS011;1033;52.560;13.374;2023-08-30T13:52:04;6.37;;;3.63;;
2055;SDS011;1033;52.560;13.374;2023-08-30T13:54:35;4.13;;;3.10;;
2055;SDS011;1033;52.560;13.374;2023-08-30T13:57:04;4.73;;;3.40;;
2055;SDS011;1033;52.560;13.374;2023-08-30T13:59:34;4.17;;;3.60;;
2055;SDS011;1033;52.560;13.374;2023-08-30T14:02:03;3.60;;;3.07;;
2055;SDS011;1033;52.560;13.374;2023-08-30T14:04:33;3.00;;;2.50;;
2055;SDS011;1033;52.560;13.374;2023-08-30T14:07:04;4.97;;;3.17;;
2055;SDS011;1033;52.560;13.374;2023-08-30T14:09:36;3.73;;;2.23;;
2055;SDS011;1033;52.560;13.374;2023-08-30T14:12:05;3.70;;;3.00;;
2055;SDS011;1033;52.560;13.374;2023-08-30T14:14:35;2.90;;;2.30;;
2055;SDS011;1033;52.560;13.374;2023-08-30T14:17:04;3.53;;;2.50;;
2055;SDS011;1033;52.560;13.374;2023-08-30T14:19:34;3.07;;;2.50;;
2055;SDS011;1033;52.560;13.374;2023-08-30T14:22:03;3.47;;;2.37;;
2055;SDS011;1033;52.560;13.374;2023-08-30T14:24:34;7.87;;;3.40;;
2055;SDS011;1033;52.560;13.374;2023-08-30T14:27:18;8.97;;;2.90;;
2055;SDS011;1033;52.560;13.374;2023-08-30T14:29:47;2.57;;;1.63;;
2055;SDS011;1033;52.560;13.374;2023-08-30T14:32:17;3.20;;;2.30;;
2055;SDS011;1033;52.560;13.374;2023-08-30T14:34:46;3.00;;;2.70;;
2055;SDS011;1033;52.560;13.374;2023-08-30T14:37:15;3.30;;;2.20;;
2055;SDS011;1033;52.560;13.374;2023-08-30T14:39:46;3.33;;;2.80;;
2055;SDS011;1033;52.560;13.374;2023-08-30T14:42:15;3.87;;;2.70;;
2055;SDS011;1033;52.560;13.374;2023-08-30T14:44:45;6.20;;;1.73;;
2055;SDS011;1033;52.560;13.374;2023-08-30T14:47:18;2.63;;;2.00;;
2055;SDS011;1033;52.560;13.374;2023-08-30T14:49:49;2.40;;;2.00;;
2055;SDS011;1033;52.560;13.374;2023-08-30T14:52:18;3.00;;;2.43;;
2055;SDS011;1033;52.560;13.374;2023-08-30T14:54:49;2.50;;;2.27;;
2055;SDS011;1033;52.560;13.374;2023-08-30T14:57:19;3.63;;;2.60;;
2055;SDS011;1033;52.560;13.374;2023-08-30T15:03:28;5.57;;;4.43;;
2055;SDS011;1033;52.560;13.374;2023-08-30T15:05:58;5.47;;;3.20;;
2055;SDS011;1033;52.560;13.374;2023-08-30T15:08:28;4.30;;;2.53;;
2055;SDS011;1033;52.560;13.374;2023-08-30T15:10:59;7.10;;;3.17;;
2055;SDS011;1033;52.560;13.374;2023-08-30T15:13:30;3.00;;;2.43;;
2055;SDS011;1033;52.560;13.374;2023-08-30T15:15:59;2.30;;;1.80;;
2055;SDS011;1033;52.560;13.374;2023-08-30T15:18:29;3.63;;;2.47;;
2055;SDS011;1033;52.560;13.374;2023-08-30T15:20:58;3.70;;;2.50;;
2055;SDS011;1033;52.560;13.374;2023-08-30T15:23:28;3.50;;;2.20;;
2055;SDS011;1033;52.560;13.374;2023-08-30T15:25:58;9.23;;;2.13;;
2055;SDS011;1033;52.560;13.374;2023-08-30T15:28:32;4.07;;;2.00;;
2055;SDS011;1033;52.560;13.374;2023-08-30T15:31:03;2.63;;;2.00;;
2055;SDS011;1033;52.560;13.374;2023-08-30T15:33:34;2.13;;;1.57;;
2055;SDS011;1033;52.560;13.374;2023-08-30T15:36:04;2.43;;;1.80;;
2055;SDS011;1033;52.560;13.374;2023-08-30T15:38:34;2.40;;;1.63;;
2055;SDS011;1033;52.560;13.374;2023-08-30T15:41:08;2.00;;;1.80;;
2055;SDS011;1033;52.560;13.374;2023-08-30T15:43:38;2.50;;;1.70;;
2055;SDS011;1033;52.560;13.374;2023-08-30T15:46:07;3.70;;;2.10;;
2055;SDS011;1033;52.560;13.374;2023-08-30T15:48:38;2.73;;;1.87;;
2055;SDS011;1033;52.560;13.374;2023-08-30T15:51:08;3.50;;;1.90;;
2055;SDS011;1033;52.560;13.374;2023-08-30T15:53:49;8.63;;;2.63;;
2055;SDS011;1033;52.560;13.374;2023-08-30T15:56:21;2.77;;;1.90;;